Time;durP1;ratioP1;P1;durP2;ratioP2;P2;SDS_P1;SDS_P2;PMS_P1;PMS_P2;Temp;Humidity;BMP_temperature;BMP_pressure;BME280_temperature;BME280_humidity;BME280_pressure;Samples;Min_cycle;Max_cycle;Signal;HPM_P1;HPM_P2
2022/04/23 00:02:01;;;;;;;5.53;4.37;;;7.10;99.90;6.90;99932.00;;;;4864037;28;121596;-62
2022/04/23 00:04:30;;;;;;;6.30;3.60;;;7.10;99.90;6.90;99933.00;;;;4856006;28;97361;-64
2022/04/23 00:06:59;;;;;;;6.50;3.90;;;7.00;99.90;6.90;99926.00;;;;4856561;28;94049;-63
2022/04/23 00:09:26;;;;;;;4.70;4.30;;;7.00;99.90;6.80;99932.00;;;;4856847;28;92714;-62
2022/04/23 00:11:55;;;;;;;7.43;4.37;;;6.90;99.90;6.80;99930.00;;;;4866577;28;93513;-63
2022/04/23 00:14:26;;;;;;;4.30;3.77;;;6.90;99.90;6.70;99927.00;;;;4874767;28;93649;-63
2022/04/23 00:16:53;;;;;;;6.70;4.17;;;6.80;99.90;6.70;99924.00;;;;4860187;28;92909;-62
2022/04/23 00:19:20;;;;;;;4.17;3.67;;;6.80;99.90;6.60;99928.00;;;;4858736;28;93061;-62
2022/04/23 00:21:46;;;;;;;6.37;4.23;;;6.80;99.90;6.60;99922.00;;;;4874880;28;93742;-60
2022/04/23 00:24:12;;;;;;;7.77;3.50;;;6.80;99.90;6.60;99925.00;;;;4874224;28;121539;-63
2022/04/23 00:26:39;;;;;;;12.07;5.00;;;6.70;99.90;6.60;99924.00;;;;4874444;28;102193;-63
2022/04/23 00:29:05;;;;;;;4.07;3.07;;;6.70;99.90;6.50;99928.00;;;;4870073;28;92869;-64
2022/04/23 00:31:31;;;;;;;6.50;4.57;;;6.90;99.90;6.50;99924.00;;;;4854609;28;122407;-63
2022/04/23 00:33:57;;;;;;;5.97;4.83;;;6.70;99.90;6.50;99919.00;;;;4854664;28;124296;-62
2022/04/23 00:36:23;;;;;;;5.80;5.03;;;6.60;99.90;6.50;99924.00;;;;4837361;28;110241;-64
2022/04/23 00:38:52;;;;;;;3.67;3.20;;;6.60;99.90;6.50;99920.00;;;;4857061;28;92695;-64
2022/04/23 00:44:04;;;;;;;4.40;3.80;;;6.50;99.90;6.30;99916.00;;;;4874604;28;92901;-63
2022/04/23 00:46:30;;;;;;;6.77;4.20;;;6.50;99.90;6.30;99916.00;;;;4875158;28;93113;-63
2022/04/23 00:48:55;;;;;;;6.63;4.63;;;6.40;99.90;6.20;99924.00;;;;4871343;28;110210;-63
2022/04/23 00:51:22;;;;;;;6.43;5.13;;;6.70;99.90;6.20;99933.00;;;;4855499;28;93089;-64
2022/04/23 00:53:49;;;;;;;8.33;5.63;;;6.40;99.90;6.20;99917.00;;;;4855769;28;122046;-63
2022/04/23 00:56:17;;;;;;;6.20;4.57;;;6.30;99.90;6.10;99918.00;;;;4864639;28;94007;-63
2022/04/23 00:58:43;;;;;;;6.63;5.33;;;6.30;99.90;6.10;99929.00;;;;4858008;28;99478;-64
2022/04/23 01:01:09;;;;;;;6.57;5.00;;;6.30;99.90;6.00;99926.00;;;;4861026;28;93117;-62
2022/04/23 01:03:36;;;;;;;4.73;4.03;;;6.20;99.90;5.90;99921.00;;;;4857606;28;108087;-64
2022/04/23 01:06:02;;;;;;;6.33;5.47;;;6.10;99.90;5.90;99922.00;;;;4859246;28;92943;-64
2022/04/23 01:08:28;;;;;;;6.30;4.73;;;6.10;99.90;5.90;99918.00;;;;4858443;28;95288;-62
2022/04/23 01:10:54;;;;;;;7.63;5.40;;;6.10;99.90;5.80;99922.00;;;;4859648;28;99492;-64
2022/04/23 01:13:20;;;;;;;11.17;6.23;;;6.00;99.90;5.80;99926.00;;;;4857957;28;106949;-63
2022/04/23 01:16:10;;;;;;;13.10;4.73;;;6.00;99.90;5.70;99926.00;;;;4874475;28;92967;-64
2022/04/23 01:18:41;;;;;;;9.60;5.40;;;5.90;99.90;5.70;99917.00;;;;4877601;28;92944;-64
2022/04/23 01:21:10;;;;;;;8.57;6.30;;;5.80;99.90;5.60;99920.00;;;;4876404;28;94732;-62
2022/04/23 01:23:39;;;;;;;8.23;5.50;;;5.80;99.90;5.60;99919.00;;;;4876835;28;94407;-61
2022/04/23 01:26:04;;;;;;;6.70;4.73;;;5.70;99.90;5.60;99917.00;;;;4877621;28;92748;-62
2022/04/23 01:28:33;;;;;;;8.67;5.20;;;5.70;99.90;5.50;99925.00;;;;4876868;28;108951;-64
2022/04/23 01:30:59;;;;;;;5.93;5.27;;;5.70;99.90;5.50;99933.00;;;;4877151;28;96807;-62
2022/04/23 01:33:25;;;;;;;11.67;6.00;;;5.70;99.90;5.50;99922.00;;;;4876122;28;118399;-62
2022/04/23 01:35:51;;;;;;;9.70;5.83;;;5.60;99.90;5.40;99920.00;;;;4876554;28;110350;-62
2022/04/23 01:38:16;;;;;;;7.97;5.60;;;5.60;99.90;5.40;99918.00;;;;4877747;28;92405;-63
2022/04/23 01:40:43;;;;;;;9.90;6.73;;;5.60;99.90;5.30;99922.00;;;;4861532;28;122360;-64
2022/04/23 01:43:09;;;;;;;7.67;5.90;;;5.50;99.90;5.30;99921.00;;;;4857141;28;94552;-62
2022/04/23 01:45:36;;;;;;;9.17;5.73;;;5.50;99.90;5.30;99913.00;;;;4858880;28;93906;-64
2022/04/23 01:48:02;;;;;;;6.93;5.57;;;5.50;99.90;5.30;99922.00;;;;4858522;28;92946;-64
2022/04/23 01:50:28;;;;;;;10.17;7.13;;;5.40;99.90;5.20;99924.00;;;;4840288;28;117622;-62
2022/04/23 01:52:53;;;;;;;8.77;6.47;;;5.40;99.90;5.20;99919.00;;;;4856451;28;120873;-62
2022/04/23 01:55:19;;;;;;;9.70;6.10;;;5.40;99.90;5.20;99927.00;;;;4857911;28;109126;-62
2022/04/23 01:57:45;;;;;;;9.00;6.47;;;5.30;99.90;5.10;99923.00;;;;4862453;28;100260;-62
2022/04/23 02:00:15;;;;;;;10.70;7.50;;;5.30;99.90;5.10;99913.00;;;;4865790;28;122883;-62
2022/04/23 02:02:41;;;;;;;15.87;7.40;;;5.30;99.90;5.10;99924.00;;;;4877251;28;92790;-62
2022/04/23 02:05:08;;;;;;;9.20;6.57;;;5.30;99.90;5.00;99914.00;;;;4876397;28;92688;-63
2022/04/23 02:07:44;;;;;;;10.77;6.77;;;5.20;99.90;5.00;99917.00;;;;4877074;28;93053;-62
2022/04/23 02:10:14;;;;;;;8.73;6.40;;;5.30;99.90;5.00;99914.00;;;;4870152;28;93878;-63
2022/04/23 02:12:40;;;;;;;13.77;7.70;;;5.10;99.90;4.90;99917.00;;;;4856280;28;118033;-63
2022/04/23 02:15:11;;;;;;;9.53;6.57;;;5.20;99.90;4.90;99918.00;;;;4857641;28;92847;-61
2022/04/23 02:17:39;;;;;;;9.60;7.37;;;5.10;99.90;4.80;99916.00;;;;4857314;28;102646;-63
2022/04/23 02:20:08;;;;;;;9.30;7.03;;;5.40;99.90;4.80;99915.00;;;;4865649;28;93120;-63
2022/04/23 02:22:34;;;;;;;11.37;8.40;;;5.00;99.90;4.80;99928.00;;;;4874123;28;112307;-63
2022/04/23 02:25:00;;;;;;;9.97;7.67;;;4.90;99.90;4.70;99916.00;;;;4877002;28;92905;-61
2022/04/23 02:27:26;;;;;;;10.17;6.57;;;5.00;99.90;4.70;99927.00;;;;4877297;28;92557;-63
2022/04/23 02:29:52;;;;;;;11.83;8.37;;;4.90;99.90;4.70;99931.00;;;;4873551;28;93429;-63
2022/04/23 02:32:18;;;;;;;6.87;5.40;;;4.90;99.90;4.70;99928.00;;;;4876959;28;93743;-63
2022/04/23 02:34:44;;;;;;;10.83;7.30;;;4.90;99.90;4.70;99935.00;;;;4876669;28;94264;-63
2022/04/23 02:37:11;;;;;;;8.37;6.77;;;4.90;99.90;4.70;99931.00;;;;4876553;28;92794;-63
2022/04/23 02:39:39;;;;;;;10.37;7.97;;;4.80;99.90;4.70;99929.00;;;;4855073;28;93137;-63
2022/04/23 02:42:05;;;;;;;12.47;8.73;;;4.80;99.90;4.70;99936.00;;;;4858165;28;93244;-63
2022/04/23 02:44:32;;;;;;;9.53;7.63;;;4.80;99.90;4.60;99930.00;;;;4857665;28;92760;-63
2022/04/23 02:46:58;;;;;;;8.00;6.43;;;4.80;99.90;4.60;99928.00;;;;4857325;28;92844;-63
2022/04/23 02:49:24;;;;;;;14.33;7.93;;;4.80;99.90;4.60;99934.00;;;;4858239;28;94037;-62
2022/04/23 02:51:51;;;;;;;9.37;6.93;;;4.80;99.90;4.60;99935.00;;;;4875113;28;92854;-62
2022/04/23 02:54:18;;;;;;;14.27;9.20;;;4.70;99.90;4.50;99928.00;;;;4876296;28;92934;-63
2022/04/23 02:56:45;;;;;;;7.93;7.10;;;4.70;99.90;4.50;99933.00;;;;4870648;28;92603;-62
2022/04/23 02:59:11;;;;;;;19.03;9.13;;;4.70;99.90;4.40;99928.00;;;;4875669;28;95385;-63
2022/04/23 03:01:37;;;;;;;10.77;8.13;;;4.70;99.90;4.40;99931.00;;;;4856465;28;117125;-63
2022/04/23 03:04:03;;;;;;;11.97;9.17;;;4.70;99.90;4.40;99933.00;;;;4856161;28;107949;-62
2022/04/23 03:06:30;;;;;;;11.17;7.40;;;4.60;99.90;4.40;99953.00;;;;4856070;28;98685;-62
2022/04/23 03:08:56;;;;;;;10.63;7.03;;;4.60;99.90;4.30;99938.00;;;;4856689;28;94206;-63
2022/04/23 03:11:23;;;;;;;9.13;7.07;;;4.60;99.90;4.30;99935.00;;;;4872448;28;93725;-63
2022/04/23 03:13:48;;;;;;;13.20;8.33;;;4.50;99.90;4.30;99941.00;;;;4876121;28;93410;-63
2022/04/23 03:16:14;;;;;;;11.67;8.10;;;4.50;99.90;4.30;99941.00;;;;4875657;28;107734;-63
2022/04/23 03:18:40;;;;;;;10.80;8.03;;;4.70;99.90;4.20;99949.00;;;;4874643;28;122980;-63
2022/04/23 03:21:05;;;;;;;10.10;7.67;;;4.40;99.90;4.20;99941.00;;;;4873068;28;123656;-63
2022/04/23 03:23:31;;;;;;;11.43;7.13;;;4.40;99.90;4.20;99942.00;;;;4875038;28;95392;-64
2022/04/23 03:25:57;;;;;;;10.17;7.07;;;4.40;99.90;4.10;99949.00;;;;4875116;28;108562;-63
2022/04/23 03:28:23;;;;;;;11.47;6.73;;;4.40;99.90;4.10;99948.00;;;;4874739;28;112080;-63
2022/04/23 03:30:49;;;;;;;10.47;7.83;;;4.30;99.90;4.10;99952.00;;;;4869718;28;93192;-64
2022/04/23 03:33:16;;;;;;;11.80;7.33;;;4.30;99.90;4.00;99958.00;;;;4875011;28;96968;-63
2022/04/23 03:35:41;;;;;;;11.70;8.37;;;4.30;99.90;4.00;99956.00;;;;4865941;28;92804;-62
2022/04/23 03:38:08;;;;;;;12.77;8.23;;;4.50;99.90;4.00;99958.00;;;;4855549;28;122412;-62
2022/04/23 03:40:33;;;;;;;10.47;7.77;;;4.20;99.90;4.00;99954.00;;;;4864585;28;93797;-63
2022/04/23 03:42:59;;;;;;;12.93;7.50;;;4.20;99.90;4.00;99957.00;;;;4874792;28;109964;-63
2022/04/23 03:45:25;;;;;;;13.00;8.97;;;4.20;99.90;4.00;99947.00;;;;4875782;28;93015;-62
2022/04/23 03:47:51;;;;;;;10.20;8.60;;;4.20;99.90;3.90;99956.00;;;;4874362;28;94945;-63
2022/04/23 03:50:17;;;;;;;15.50;9.60;;;4.20;99.90;3.90;99954.00;;;;4873258;28;123880;-63
2022/04/23 03:52:46;;;;;;;11.53;8.47;;;4.10;99.90;3.90;99946.00;;;;4874873;28;93226;-64
2022/04/23 03:55:12;;;;;;;13.40;8.00;;;4.10;99.90;3.90;99956.00;;;;4875539;28;93198;-63
2022/04/23 03:57:49;;;;;;;11.63;8.27;;;4.10;99.90;3.80;99951.00;;;;4861743;28;94168;-63
2022/04/23 04:00:17;;;;;;;15.97;8.70;;;4.00;99.90;3.80;99945.00;;;;4861630;28;93013;-63
2022/04/23 04:02:46;;;;;;;13.03;8.80;;;4.10;99.90;3.80;99954.00;;;;4875631;28;92802;-63
2022/04/23 04:05:24;;;;;;;12.63;8.13;;;4.00;99.90;3.80;99949.00;;;;4876011;28;91917;-62
2022/04/23 04:07:52;;;;;;;16.27;8.90;;;4.00;99.90;3.80;99950.00;;;;4855923;28;113866;-62
2022/04/23 04:10:20;;;;;;;12.27;8.03;;;4.00;99.90;3.80;99957.00;;;;4869123;28;93881;-62
2022/04/23 04:12:47;;;;;;;13.27;9.93;;;4.60;99.90;3.80;99953.00;;;;4855839;28;93934;-63
2022/04/23 04:15:16;;;;;;;12.90;9.73;;;4.00;99.90;3.80;99941.00;;;;4856870;28;92805;-63
2022/04/23 04:17:44;;;;;;;12.30;9.70;;;4.00;99.90;3.80;99949.00;;;;4855784;28;93369;-63
2022/04/23 04:20:12;;;;;;;14.53;9.70;;;3.90;99.90;3.80;99957.00;;;;4863204;28;93429;-63
2022/04/23 04:22:42;;;;;;;15.60;10.53;;;3.90;99.90;3.80;99955.00;;;;4875271;28;92962;-63
2022/04/23 04:25:09;;;;;;;20.10;11.00;;;4.00;99.90;3.80;99951.00;;;;4874448;28;92846;-63
2022/04/23 04:27:36;;;;;;;13.93;10.33;;;4.00;99.90;3.80;99952.00;;;;4874023;28;93875;-62
2022/04/23 04:30:08;;;;;;;14.63;10.13;;;4.00;99.90;3.90;99957.00;;;;4876979;28;92663;-63
2022/04/23 04:32:33;;;;;;;16.33;10.97;;;4.10;99.90;3.90;99956.00;;;;4858239;28;92981;-63
2022/04/23 04:34:59;;;;;;;13.53;10.27;;;4.10;99.90;3.90;99959.00;;;;4857299;28;108184;-63
2022/04/23 04:37:27;;;;;;;13.57;9.87;;;4.10;99.90;4.00;99968.00;;;;4876176;28;94287;-63
2022/04/23 04:39:53;;;;;;;17.33;12.00;;;4.60;99.90;4.00;99955.00;;;;4877747;28;94034;-64
2022/04/23 04:42:19;;;;;;;17.67;11.10;;;4.20;99.90;4.00;99954.00;;;;4877485;28;93063;-63
2022/04/23 04:44:44;;;;;;;15.50;10.23;;;4.20;99.90;4.10;99959.00;;;;4876382;28;92655;-64
2022/04/23 04:47:11;;;;;;;15.43;9.97;;;4.30;99.90;4.10;99953.00;;;;4875705;28;123178;-62
2022/04/23 04:49:38;;;;;;;11.23;10.00;;;4.30;99.90;4.20;99955.00;;;;4877695;28;93525;-63
2022/04/23 04:52:05;;;;;;;18.27;11.33;;;4.40;99.90;4.20;99963.00;;;;4876491;28;93046;-63
2022/04/23 04:54:31;;;;;;;21.97;12.50;;;4.40;99.90;4.30;99959.00;;;;4864146;28;104192;-63
2022/04/23 04:56:57;;;;;;;16.53;10.43;;;4.40;99.90;4.40;99955.00;;;;4846202;28;95635;-63
2022/04/23 04:59:23;;;;;;;16.57;10.93;;;4.50;99.90;4.60;99957.00;;;;4857375;28;93865;-63
2022/04/23 05:01:50;;;;;;;12.93;9.60;;;4.70;99.90;4.70;99962.00;;;;4857859;28;94077;-63
2022/04/23 05:04:16;;;;;;;14.20;10.13;;;4.80;99.90;4.80;99967.00;;;;4859250;28;99993;-62
2022/04/23 05:06:42;;;;;;;13.60;10.13;;;4.90;99.90;5.00;99963.00;;;;4857134;28;111713;-63
2022/04/23 05:09:08;;;;;;;15.53;11.07;;;5.50;99.90;5.10;99957.00;;;;4857272;28;122660;-62
2022/04/23 05:11:33;;;;;;;14.73;10.07;;;5.10;99.90;5.20;99967.00;;;;4857422;28;111310;-63
2022/04/23 05:13:59;;;;;;;11.40;9.17;;;5.30;99.90;5.30;99970.00;;;;4861546;28;109019;-63
2022/04/23 05:16:25;;;;;;;16.07;10.40;;;5.50;99.90;5.50;99974.00;;;;4873115;28;118155;-63
2022/04/23 05:18:51;;;;;;;14.60;9.17;;;6.10;99.90;5.60;99968.00;;;;4865714;28;121338;-63
2022/04/23 05:21:16;;;;;;;14.27;8.60;;;5.80;99.90;5.80;99970.00;;;;4872982;28;113947;-64
2022/04/23 05:23:42;;;;;;;11.17;8.70;;;6.20;99.90;6.00;99970.00;;;;4867769;28;109063;-64
2022/04/23 05:26:09;;;;;;;12.27;8.93;;;6.00;99.90;6.10;99969.00;;;;4872444;28;111310;-63
2022/04/23 05:28:35;;;;;;;12.77;7.87;;;6.30;99.90;6.30;99969.00;;;;4873167;28;94791;-64
2022/04/23 05:31:13;;;;;;;11.13;7.70;;;6.30;99.90;6.50;99980.00;;;;4874185;28;92769;-64
2022/04/23 05:33:38;;;;;;;8.33;6.70;;;6.40;99.90;6.60;99980.00;;;;4868365;28;108990;-64
2022/04/23 05:36:06;;;;;;;11.17;7.70;;;6.60;99.90;6.80;99982.00;;;;4871012;28;121835;-63
2022/04/23 05:38:36;;;;;;;13.73;7.47;;;6.80;99.90;6.90;99988.00;;;;4873711;28;93908;-65
2022/04/23 05:41:02;;;;;;;12.53;7.70;;;6.90;99.90;7.10;99993.00;;;;4873728;28;92825;-64
2022/04/23 05:43:28;;;;;;;10.43;7.93;;;7.10;99.90;7.30;99986.00;;;;4873813;28;92134;-65
2022/04/23 05:45:57;;;;;;;12.87;8.40;;;7.20;99.90;7.50;99985.00;;;;4873118;28;106786;-64
2022/04/23 05:48:23;;;;;;;8.77;7.10;;;7.50;99.90;7.60;99993.00;;;;4873769;28;93747;-63
2022/04/23 05:50:50;;;;;;;7.70;6.67;;;7.90;99.90;7.80;99993.00;;;;4872769;28;93778;-67
2022/04/23 05:53:15;;;;;;;12.00;8.03;;;7.70;99.90;7.90;99989.00;;;;4873032;28;92915;-64
2022/04/23 05:55:41;;;;;;;9.30;6.83;;;7.90;99.90;8.10;99988.00;;;;4872318;28;123441;-63
2022/04/23 05:58:07;;;;;;;10.60;6.53;;;8.10;99.90;8.20;99996.00;;;;4865715;28;123642;-63
2022/04/23 06:00:33;;;;;;;11.00;6.53;;;8.20;99.90;8.40;99990.00;;;;4872549;28;107903;-64
2022/04/23 06:02:59;;;;;;;10.00;5.53;;;8.30;99.90;8.50;99993.00;;;;4872998;28;98281;-64
2022/04/23 06:05:24;;;;;;;9.27;6.20;;;8.40;99.90;8.60;100003.00;;;;4872148;28;110974;-63
2022/04/23 06:07:50;;;;;;;12.87;6.23;;;8.50;99.90;8.70;100009.00;;;;4872890;28;93752;-65
2022/04/23 06:10:16;;;;;;;11.60;6.97;;;8.60;99.90;8.80;99998.00;;;;4873475;28;92970;-64
2022/04/23 06:12:42;;;;;;;7.70;4.97;;;8.70;99.90;8.90;100002.00;;;;4873441;28;92926;-62
2022/04/23 06:15:08;;;;;;;5.77;5.13;;;8.90;99.90;9.00;100008.00;;;;4870977;28;123882;-62
2022/04/23 06:17:34;;;;;;;8.50;5.43;;;9.00;99.90;9.10;100000.00;;;;4854527;28;93507;-62
2022/04/23 06:20:00;;;;;;;6.27;5.17;;;9.10;99.90;9.20;100007.00;;;;4872834;28;109756;-62
2022/04/23 06:22:26;;;;;;;8.60;5.73;;;9.20;99.90;9.30;100012.00;;;;4873254;28;93168;-62
2022/04/23 06:24:52;;;;;;;9.30;7.07;;;9.20;99.90;9.40;100011.00;;;;4869296;28;123315;-62
2022/04/23 06:27:18;;;;;;;10.03;5.40;;;9.30;99.90;9.50;100022.00;;;;4871542;28;119878;-62
2022/04/23 06:29:44;;;;;;;9.37;5.47;;;9.40;99.90;9.70;100025.00;;;;4873688;28;93366;-63
2022/04/23 06:32:10;;;;;;;7.00;5.47;;;9.60;99.90;9.90;100023.00;;;;4872566;28;108269;-62
2022/04/23 06:34:37;;;;;;;12.73;6.23;;;9.80;99.90;10.20;100027.00;;;;4871509;28;93362;-62
2022/04/23 06:37:04;;;;;;;8.00;5.70;;;10.00;99.90;10.40;100026.00;;;;4872138;28;94226;-63
2022/04/23 06:39:31;;;;;;;8.60;5.07;;;10.30;99.90;10.60;100023.00;;;;4873198;28;93736;-63
2022/04/23 06:41:57;;;;;;;7.23;4.93;;;10.50;99.90;10.80;100031.00;;;;4873048;28;92921;-63
2022/04/23 06:44:22;;;;;;;8.40;5.57;;;10.70;99.90;11.00;100031.00;;;;4870331;28;123923;-64
2022/04/23 06:46:48;;;;;;;7.97;4.50;;;10.90;99.90;11.20;100027.00;;;;4865713;28;121245;-63
2022/04/23 06:49:13;;;;;;;6.93;4.43;;;11.00;99.90;11.40;100026.00;;;;4871757;28;110700;-62
2022/04/23 06:51:40;;;;;;;5.03;4.57;;;11.30;99.90;11.50;100027.00;;;;4871330;28;108872;-62
2022/04/23 06:54:29;;;;;;;7.13;4.50;;;11.40;99.90;11.70;100035.00;;;;4871555;28;93495;-63
2022/04/23 06:56:55;;;;;;;19.37;6.83;;;11.60;97.10;11.70;100025.00;;;;4791696;29;122594;-64
2022/04/23 06:59:20;;;;;;;7.00;4.80;;;11.60;97.10;11.80;100021.00;;;;4861055;28;92947;-63
2022/04/23 07:01:46;;;;;;;7.17;3.60;;;11.70;96.40;12.00;100027.00;;;;4871345;28;92967;-64
2022/04/23 07:04:12;;;;;;;6.73;4.37;;;11.90;94.00;12.00;100023.00;;;;4866747;28;122179;-64
2022/04/23 07:06:38;;;;;;;6.23;4.13;;;11.90;91.90;12.10;100023.00;;;;4871391;28;122835;-64
2022/04/23 07:09:05;;;;;;;6.07;4.50;;;12.00;93.30;12.20;100017.00;;;;4872519;28;92851;-63
2022/04/23 07:11:31;;;;;;;6.80;5.07;;;12.10;91.10;12.30;100009.00;;;;4872548;28;92706;-63
2022/04/23 07:13:56;;;;;;;7.00;4.77;;;12.20;92.40;12.40;100013.00;;;;4868299;28;94371;-63
2022/04/23 07:16:22;;;;;;;5.57;4.47;;;12.30;91.60;12.60;100019.00;;;;4870909;28;121052;-63
2022/04/23 07:18:48;;;;;;;5.63;4.53;;;12.50;87.60;12.60;100014.00;;;;4871219;28;110197;-64
2022/04/23 07:21:13;;;;;;;4.97;3.80;;;12.60;88.10;12.80;100019.00;;;;4867465;28;92212;-62
2022/04/23 07:26:23;;;;;;;3.40;3.10;;;12.80;81.20;13.00;100018.00;;;;4861205;28;93013;-64
2022/04/23 07:28:49;;;;;;;6.03;3.40;;;12.90;83.20;13.10;100021.00;;;;4871828;28;93974;-63
2022/04/23 07:31:46;;;;;;;3.87;2.63;;;13.00;84.10;13.30;100018.00;;;;4867526;28;99538;-63
2022/04/23 07:39:40;;;;;;;4.70;2.63;;;13.50;72.80;13.60;100009.00;;;;4869712;28;93026;-63
2022/04/23 07:42:06;;;;;;;2.73;2.53;;;13.50;72.20;13.80;100007.00;;;;4866064;28;92953;-63
2022/04/23 07:44:32;;;;;;;3.20;2.27;;;13.60;70.00;13.90;100008.00;;;;4872284;28;93233;-62
2022/04/23 07:46:57;;;;;;;3.73;2.33;;;13.70;67.80;13.90;100006.00;;;;4871616;28;93576;-62
2022/04/23 07:49:23;;;;;;;3.20;2.30;;;13.80;67.60;14.00;100005.00;;;;4871963;28;92738;-62
2022/04/23 07:51:52;;;;;;;2.57;2.33;;;13.90;68.30;14.20;100003.00;;;;4864558;28;108553;-62
2022/04/23 07:54:17;;;;;;;2.37;1.83;;;14.00;68.10;14.30;100010.00;;;;4871008;28;94941;-62
2022/04/23 07:56:44;;;;;;;3.77;2.50;;;14.10;65.30;14.40;100005.00;;;;4870954;28;95043;-63
2022/04/23 07:59:10;;;;;;;2.90;2.40;;;14.20;64.50;14.30;100010.00;;;;4871831;28;93207;-62
2022/04/23 08:01:35;;;;;;;3.83;2.20;;;14.30;62.90;14.40;99999.00;;;;4870565;28;93100;-62
2022/04/23 08:04:03;;;;;;;4.00;2.27;;;14.20;63.40;14.50;100008.00;;;;4870008;28;106642;-62
2022/04/23 08:06:30;;;;;;;6.27;3.03;;;14.30;61.30;14.40;100014.00;;;;4867387;28;92844;-64
2022/04/23 08:08:56;;;;;;;3.33;2.13;;;14.30;62.70;14.60;100013.00;;;;4871425;28;92771;-63
2022/04/23 08:11:24;;;;;;;3.13;2.63;;;14.40;60.80;14.60;100007.00;;;;4846233;28;107916;-63
2022/04/23 08:13:50;;;;;;;2.87;2.27;;;14.40;61.90;14.70;100002.00;;;;4865630;28;94548;-63
2022/04/23 08:16:16;;;;;;;3.63;2.60;;;14.50;62.20;14.80;100006.00;;;;4871596;28;93623;-62
2022/04/23 08:19:17;;;;;;;2.77;2.30;;;14.60;60.70;14.80;100004.00;;;;4870166;28;103107;-62
2022/04/23 08:21:43;;;;;;;3.67;2.40;;;14.70;59.10;14.90;100007.00;;;;4860363;28;93111;-63
2022/04/23 08:24:09;;;;;;;11.40;2.30;;;14.70;58.40;14.70;100012.00;;;;4868827;28;124499;-62
2022/04/23 08:26:34;;;;;;;3.90;3.00;;;14.70;58.10;14.60;100002.00;;;;4869956;28;122272;-62
2022/04/23 08:31:44;;;;;;;5.57;2.87;;;14.60;58.60;14.70;100001.00;;;;4869530;28;92815;-62
2022/04/23 08:34:10;;;;;;;4.60;3.30;;;14.60;58.20;14.80;100014.00;;;;4869684;28;122745;-63
2022/04/23 08:36:36;;;;;;;3.27;2.50;;;14.60;58.20;14.80;100020.00;;;;4871444;28;93493;-63
2022/04/23 08:39:04;;;;;;;3.33;2.08;;;14.60;58.10;14.80;100005.00;;;;4871127;28;92641;-63
2022/04/23 08:41:30;;;;;;;2.53;2.20;;;14.70;57.70;14.70;100013.00;;;;4868718;28;92882;-63
2022/04/23 08:43:58;;;;;;;4.10;3.17;;;14.60;57.90;14.70;99999.00;;;;4870743;28;94341;-63
2022/04/23 08:46:26;;;;;;;2.93;2.00;;;14.60;58.40;14.90;100001.00;;;;4870923;28;94934;-63
2022/04/23 08:49:17;;;;;;;31.53;19.97;;;14.70;58.80;15.00;100002.00;;;;4871165;28;92772;-63
2022/04/23 08:51:47;;;;;;;4.93;3.38;;;14.80;59.40;15.20;100002.00;;;;4870517;28;93074;-63
2022/04/23 08:54:15;;;;;;;3.97;3.03;;;14.90;58.80;15.30;100003.00;;;;4850823;28;93583;-63
2022/04/23 08:56:43;;;;;;;4.30;3.13;;;15.10;58.40;15.40;100005.00;;;;4861422;28;93211;-63
2022/04/23 08:59:12;;;;;;;4.13;2.13;;;15.20;58.90;15.60;100002.00;;;;4870378;28;92862;-63
2022/04/23 09:01:39;;;;;;;4.35;2.58;;;15.30;58.50;15.70;100002.00;;;;4871711;28;92286;-62
2022/04/23 09:04:07;;;;;;;10.93;6.15;;;15.40;57.70;15.80;99999.00;;;;4869535;28;94643;-63
2022/04/23 09:06:36;;;;;;;6.90;4.13;;;15.50;58.10;15.90;99990.00;;;;4870585;28;93160;-63
2022/04/23 09:09:20;;;;;;;4.97;3.60;;;15.70;56.90;16.00;99998.00;;;;4870793;28;94196;-63
2022/04/23 09:11:50;;;;;;;3.78;2.90;;;15.80;55.50;16.00;99977.00;;;;4871289;28;92820;-65
2022/04/23 09:14:33;;;;;;;3.00;1.85;;;15.80;55.60;16.10;99988.00;;;;4871151;28;104789;-65
2022/04/23 09:25:44;;;;;;;4.95;2.38;;;15.70;55.30;16.20;99997.00;;;;4850868;28;92706;-66
2022/04/23 09:28:16;;;;;;;5.50;5.00;;;15.90;54.50;16.30;99976.00;;;;4873519;28;92787;-65
2022/04/23 09:30:42;;;;;;;2.25;2.00;;;16.00;54.30;16.50;99980.00;;;;4873583;28;92829;-66
2022/04/23 09:33:08;;;;;;;1.95;1.50;;;16.20;54.40;16.70;99977.00;;;;4867231;28;93006;-66
2022/04/23 09:35:34;;;;;;;3.20;1.60;;;16.40;53.70;16.70;99975.00;;;;4870710;28;124021;-66
2022/04/23 09:38:18;;;;;;;4.63;2.83;;;16.50;52.70;16.80;99965.00;;;;4872430;28;94465;-66
2022/04/23 09:41:20;;;;;;;2.35;1.90;;;16.50;52.70;17.00;99961.00;;;;4873637;28;93008;-66
2022/04/23 09:43:51;;;;;;;4.35;2.00;;;16.60;52.80;17.10;99963.00;;;;4857468;28;93040;-66
2022/04/23 09:46:16;;;;;;;3.55;2.13;;;16.70;51.40;17.10;99976.00;;;;4872048;28;92913;-66
2022/04/23 09:48:43;;;;;;;2.17;2.00;;;16.80;52.10;17.30;99957.00;;;;4854800;28;123066;-66
2022/04/23 09:51:31;;;;;;;1.73;1.55;;;16.90;51.80;17.60;99953.00;;;;4872186;28;110754;-66
2022/04/23 09:53:56;;;;;;;1.45;1.30;;;17.10;52.20;17.60;99959.00;;;;4873680;28;92622;-66
2022/04/23 09:56:26;;;;;;;3.05;1.65;;;17.30;51.00;17.80;99961.00;;;;4869302;28;123902;-65
2022/04/23 09:58:52;;;;;;;1.80;1.50;;;17.40;52.00;18.00;99943.00;;;;4854503;28;94008;-67
2022/04/23 10:01:21;;;;;;;1.88;1.67;;;17.60;51.60;18.30;99929.00;;;;4854612;28;95151;-66
2022/04/23 10:03:51;;;;;;;2.88;1.92;;;17.80;50.60;18.50;99950.00;;;;4873152;28;92842;-65
2022/04/23 10:06:43;;;;;;;3.97;2.20;;;18.00;49.90;18.70;99946.00;;;;4872482;28;94542;-66
2022/04/23 10:09:09;;;;;;;1.45;1.30;;;18.20;50.60;18.70;99947.00;;;;4872950;28;93177;-66
2022/04/23 10:11:41;;;;;;;1.48;1.38;;;18.30;47.90;18.30;99937.00;;;;4855421;28;93393;-65
2022/04/23 10:14:10;;;;;;;2.13;1.92;;;18.10;47.50;18.10;99934.00;;;;4855513;28;93010;-66
2022/04/23 10:16:38;;;;;;;2.38;1.98;;;17.90;48.30;18.30;99945.00;;;;4851707;28;112190;-66
2022/04/23 10:19:24;;;;;;;2.70;1.80;;;17.90;49.00;18.60;99945.00;;;;4855518;28;92827;-66
2022/04/23 10:22:36;;;;;;;2.00;1.77;;;18.10;49.40;19.00;99944.00;;;;4872344;28;109035;-66
2022/04/23 10:25:50;;;;;;;3.67;1.85;;;18.50;49.00;18.90;99937.00;;;;4869344;28;93114;-66
2022/04/23 10:28:19;;;;;;;3.28;1.65;;;18.60;47.40;19.00;99928.00;;;;4793576;29;94219;-66
2022/04/23 10:30:49;;;;;;;1.67;1.58;;;18.60;47.30;19.00;99923.00;;;;4794349;29;94268;-67
2022/04/23 10:33:28;;;;;;;3.88;1.60;;;18.60;47.00;19.10;99932.00;;;;4867795;28;93033;-65
2022/04/23 10:36:10;;;;;;;1.88;1.70;;;18.70;47.50;19.50;99930.00;;;;4871870;28;93279;-65
2022/04/23 10:38:53;;;;;;;1.38;1.27;;;18.90;47.90;19.70;99938.00;;;;4870089;28;93124;-65
2022/04/23 10:41:22;;;;;;;2.50;1.60;;;19.20;47.50;19.90;99927.00;;;;4872541;28;94055;-65
2022/04/23 10:43:52;;;;;;;1.75;1.38;;;19.40;46.00;20.10;99920.00;;;;4854481;28;92989;-66
2022/04/23 10:46:44;;;;;;;3.90;1.98;;;19.60;46.30;20.20;99923.00;;;;4869659;28;92220;-66
2022/04/23 10:49:14;;;;;;;2.20;1.67;;;19.80;45.60;20.30;99926.00;;;;4858008;28;93536;-66
2022/04/23 10:51:56;;;;;;;2.15;1.67;;;19.80;45.00;20.20;99924.00;;;;4871820;28;92927;-66
2022/04/23 10:54:44;;;;;;;1.40;1.30;;;19.90;44.60;20.30;99916.00;;;;4872498;28;94309;-66
2022/04/23 10:57:14;;;;;;;2.53;1.73;;;19.90;45.00;20.40;99919.00;;;;4863357;28;92970;-66
2022/04/23 10:59:50;;;;;;;1.85;1.75;;;19.90;44.80;20.50;99916.00;;;;4872434;28;93871;-66
2022/04/23 11:02:21;;;;;;;2.97;1.92;;;20.10;44.50;20.50;99935.00;;;;4871922;28;94164;-66
2022/04/23 11:13:56;;;;;;;3.75;1.30;;;20.20;43.70;20.90;99910.00;;;;4872603;28;92386;-66
2022/04/23 11:16:24;;;;;;;2.50;1.65;;;20.40;43.70;20.90;99910.00;;;;4867669;28;92936;-66
2022/04/23 11:18:51;;;;;;;2.15;1.38;;;20.50;43.10;20.70;99901.00;;;;4854998;28;93124;-66
2022/04/23 11:21:32;;;;;;;1.38;1.05;;;20.40;42.60;20.50;99912.00;;;;4870577;28;116434;-67
2022/04/23 11:24:00;;;;;;;3.80;1.80;;;20.20;42.70;20.60;99908.00;;;;4869464;28;93521;-66
2022/04/23 11:26:46;;;;;;;1.30;1.20;;;20.30;43.40;20.60;99910.00;;;;4867336;28;100989;-66
2022/04/23 11:29:13;;;;;;;1.60;1.45;;;20.30;42.60;20.50;99898.00;;;;4871942;28;92753;-66
2022/04/23 11:31:40;;;;;;;1.67;1.45;;;20.20;42.00;20.50;99898.00;;;;4871981;28;93386;-66
2022/04/23 11:34:30;;;;;;;3.55;1.42;;;20.10;42.70;20.60;99898.00;;;;4870881;28;114817;-67